createdAt,value
2019-02-07T00:00:53.116Z,0.68
2019-02-07T00:01:53.108Z,0.66
2019-02-07T00:02:53.326Z,0.66
2019-02-07T00:03:53.082Z,0.63
2019-02-07T00:04:53.047Z,0.68
2019-02-07T00:05:53.848Z,0.5
2019-02-07T00:06:54.599Z,0.62
2019-02-07T00:07:52.769Z,0.6
2019-02-07T00:08:53.018Z,0.59
2019-02-07T00:09:53.228Z,0.52
2019-02-07T00:10:53.200Z,0.52
2019-02-07T00:11:53.209Z,0.5
2019-02-07T00:12:53.407Z,0.55
2019-02-07T00:13:52.940Z,0.6
2019-02-07T00:14:52.910Z,0.62
2019-02-07T00:15:52.935Z,0.63
2019-02-07T00:16:52.648Z,0.65
2019-02-07T00:17:53.129Z,0.6
2019-02-07T00:18:52.866Z,0.6
2019-02-07T00:19:52.861Z,0.63
2019-02-07T00:20:53.533Z,0.65
2019-02-07T00:21:52.832Z,0.56
2019-02-07T00:22:52.813Z,0.69
2019-02-07T00:23:53.115Z,0.56
2019-02-07T00:24:53.088Z,0.59
2019-02-07T00:25:53.039Z,0.6
2019-02-07T00:26:52.763Z,0.66
2019-02-07T00:27:52.484Z,0.69
2019-02-07T00:28:53.595Z,0.68
2019-02-07T00:29:52.483Z,0.68
2019-02-07T00:30:52.947Z,0.68
2019-02-07T00:31:52.944Z,0.7
2019-02-07T00:32:52.693Z,0.62
2019-02-07T00:33:52.682Z,0.59
2019-02-07T00:34:52.755Z,0.46
2019-02-07T00:35:52.640Z,0.49
2019-02-07T00:36:53.309Z,0.43
2019-02-07T00:37:52.864Z,0.36
2019-02-07T00:38:52.589Z,0.32
2019-02-07T00:39:52.593Z,0.31
2019-02-07T00:40:52.816Z,0.31
2019-02-07T00:41:52.823Z,0.22
2019-02-07T00:42:52.313Z,0.21
2019-02-07T00:43:52.531Z,0.32
2019-02-07T00:44:58.359Z,0.37
2019-02-07T00:45:52.500Z,0.25
2019-02-07T00:46:52.734Z,0.4
2019-02-07T00:47:52.737Z,0.39
2019-02-07T00:48:52.713Z,0.41
2019-02-07T00:49:52.450Z,0.4
2019-02-07T00:50:52.703Z,0.39
2019-02-07T00:51:52.980Z,0.41
2019-02-07T00:52:52.416Z,0.37
2019-02-07T00:53:52.644Z,0.29
2019-02-07T00:54:52.156Z,0.29
2019-02-07T00:55:52.388Z,0.25
2019-02-07T00:56:52.380Z,0.19
2019-02-07T00:57:52.117Z,0.22
2019-02-07T00:58:52.647Z,0.16
2019-02-07T00:59:52.875Z,0.11
2019-02-07T01:00:52.329Z,0.12
2019-02-07T01:01:52.533Z,-0.02
2019-02-07T01:02:52.055Z,0.04
2019-02-07T01:03:52.021Z,-0.1
2019-02-07T01:04:52.598Z,-0.07
2019-02-07T01:05:52.493Z,0
2019-02-07T01:06:52.481Z,-0.03
2019-02-07T01:07:53.122Z,-0.06
2019-02-07T01:08:52.454Z,-0.08
2019-02-07T01:09:52.439Z,-0.02
2019-02-07T01:10:52.162Z,-0.06
2019-02-07T01:11:52.409Z,-0.06
2019-02-07T01:12:52.145Z,-0.08
2019-02-07T01:13:52.133Z,-0.08
2019-02-07T01:15:01.580Z,-0.11
2019-02-07T01:15:52.401Z,-0.03
2019-02-07T01:16:52.101Z,-0.07
2019-02-07T01:17:52.090Z,0
2019-02-07T01:18:52.355Z,-0.08
2019-02-07T01:19:52.305Z,-0.06
2019-02-07T01:20:52.033Z,-0.1
2019-02-07T01:21:52.273Z,-0.11
2019-02-07T01:22:52.264Z,-0.11
2019-02-07T01:23:51.997Z,-0.02
2019-02-07T01:24:52.225Z,-0.06
2019-02-07T01:25:51.978Z,0.01
2019-02-07T01:26:52.317Z,0.1
2019-02-07T01:27:52.063Z,-0.03
2019-02-07T01:28:51.925Z,0.08
2019-02-07T01:29:52.162Z,0.03
2019-02-07T01:30:52.350Z,0.05
2019-02-07T01:31:51.888Z,-0.11
2019-02-07T01:32:51.893Z,-0.07
2019-02-07T01:33:52.105Z,-0.1
2019-02-07T01:34:52.084Z,-0.14
2019-02-07T01:35:51.832Z,-0.18
2019-02-07T01:36:52.077Z,-0.25
2019-02-07T01:37:52.068Z,-0.28
2019-02-07T01:38:52.066Z,-0.34
2019-02-07T01:39:51.776Z,-0.26
2019-02-07T01:40:52.012Z,-0.36
2019-02-07T01:41:52.059Z,-0.34
2019-02-07T01:42:51.497Z,-0.38
2019-02-07T01:43:51.962Z,-0.35
2019-02-07T01:44:51.954Z,-0.35
2019-02-07T01:45:51.873Z,-0.21
2019-02-07T01:46:51.935Z,-0.28
2019-02-07T01:47:51.670Z,-0.23
2019-02-07T01:48:51.919Z,-0.17
2019-02-07T01:49:51.896Z,-0.21
2019-02-07T01:50:51.633Z,-0.17
2019-02-07T01:51:51.601Z,-0.1
2019-02-07T01:52:51.851Z,-0.03
2019-02-07T01:53:51.920Z,-0.03
2019-02-07T01:54:51.886Z,-0.03
2019-02-07T01:55:51.793Z,-0.07
2019-02-07T01:56:51.869Z,-0.26
2019-02-07T01:57:51.520Z,-0.26
2019-02-07T01:58:51.509Z,-0.25
2019-02-07T01:59:51.480Z,-0.35
2019-02-07T02:00:51.722Z,-0.41
2019-02-07T02:01:52.955Z,-0.44
2019-02-07T02:02:51.729Z,-0.49
2019-02-07T02:03:51.695Z,-0.52
2019-02-07T02:04:51.663Z,-0.59
2019-02-07T02:05:51.650Z,-0.52
2019-02-07T02:06:51.644Z,-0.54
2019-02-07T02:07:51.632Z,-0.54
2019-02-07T02:08:51.756Z,-0.56
2019-02-07T02:09:51.599Z,-0.61
2019-02-07T02:10:51.624Z,-0.49
2019-02-07T02:11:51.629Z,-0.57
2019-02-07T02:12:51.545Z,-0.57
2019-02-07T02:13:51.570Z,-0.57
2019-02-07T02:14:51.277Z,-0.52
2019-02-07T02:15:51.505Z,-0.56
2019-02-07T02:16:51.984Z,-0.49
2019-02-07T02:17:51.219Z,-0.54
2019-02-07T02:18:51.203Z,-0.44
2019-02-07T02:19:51.440Z,-0.54
2019-02-07T02:20:51.429Z,-0.56
2019-02-07T02:21:51.413Z,-0.49
2019-02-07T02:22:51.508Z,-0.53
2019-02-07T02:23:50.890Z,-0.56
2019-02-07T02:24:52.056Z,-0.54
2019-02-07T02:25:51.113Z,-0.56
2019-02-07T02:26:51.101Z,-0.53
2019-02-07T02:27:51.335Z,-0.5
2019-02-07T02:28:51.073Z,-0.49
2019-02-07T02:29:51.131Z,-0.41
2019-02-07T02:30:51.031Z,-0.41
2019-02-07T02:31:51.115Z,-0.5
2019-02-07T02:32:51.639Z,-0.35
2019-02-07T02:33:51.350Z,-0.32
2019-02-07T02:34:51.217Z,-0.35
2019-02-07T02:35:51.222Z,-0.35
2019-02-07T02:36:51.031Z,-0.32
2019-02-07T02:37:51.187Z,-0.32
2019-02-07T02:38:50.941Z,-0.32
2019-02-07T02:39:51.674Z,-0.21
2019-02-07T02:40:51.140Z,-0.35
2019-02-07T02:41:50.882Z,-0.32
2019-02-07T02:42:51.188Z,-0.32
2019-02-07T02:43:50.606Z,-0.31
2019-02-07T02:44:50.869Z,-0.32
2019-02-07T02:45:50.813Z,-0.26
2019-02-07T02:46:50.822Z,-0.35
2019-02-07T02:47:51.398Z,-0.39
2019-02-07T02:48:51.057Z,-0.38
2019-02-07T02:49:51.052Z,-0.31
2019-02-07T02:50:51.009Z,-0.38
2019-02-07T02:51:51.013Z,-0.46
2019-02-07T02:52:50.981Z,-0.43
2019-02-07T02:53:50.751Z,-0.44
2019-02-07T02:54:50.946Z,-0.57
2019-02-07T02:55:50.959Z,-0.61
2019-02-07T02:56:50.932Z,-0.57
2019-02-07T02:57:50.922Z,-0.62
2019-02-07T02:58:50.645Z,-0.54
2019-02-07T02:59:50.675Z,-0.41
2019-02-07T03:00:50.627Z,-0.43
2019-02-07T03:01:50.362Z,-0.39
2019-02-07T03:02:50.863Z,-0.35
2019-02-07T03:03:50.836Z,-0.43
2019-02-07T03:04:50.823Z,-0.36
2019-02-07T03:05:50.803Z,-0.47
2019-02-07T03:06:50.780Z,-0.54
2019-02-07T03:07:50.416Z,-0.54
2019-02-07T03:08:50.524Z,-0.62
2019-02-07T03:09:50.489Z,-0.71
2019-02-07T03:10:51.234Z,-0.7
2019-02-07T03:11:50.722Z,-0.67
2019-02-07T03:12:50.573Z,-0.64
2019-02-07T03:13:50.433Z,-0.68
2019-02-07T03:14:50.669Z,-0.54
2019-02-07T03:15:54.461Z,-0.54
2019-02-07T03:16:50.690Z,-0.49
2019-02-07T03:17:50.381Z,-0.44
2019-02-07T03:18:50.755Z,-0.43
2019-02-07T03:19:50.125Z,-0.56
2019-02-07T03:20:50.368Z,-0.52
2019-02-07T03:21:50.593Z,-0.61
2019-02-07T03:22:50.323Z,-0.71
2019-02-07T03:23:50.609Z,-0.68
2019-02-07T03:24:50.564Z,-0.78
2019-02-07T03:25:50.653Z,-0.7
2019-02-07T03:26:50.001Z,-0.75
2019-02-07T03:27:50.254Z,-0.75
2019-02-07T03:28:50.227Z,-0.8
2019-02-07T03:29:49.984Z,-0.77
2019-02-07T03:30:50.560Z,-0.71
2019-02-07T03:31:50.442Z,-0.8
2019-02-07T03:32:50.470Z,-0.83
2019-02-07T03:33:50.714Z,-0.94
2019-02-07T03:34:50.151Z,-0.97
2019-02-07T03:35:50.131Z,-1.09
2019-02-07T03:36:50.407Z,-1.04
2019-02-07T03:37:50.083Z,-1.02
2019-02-07T03:38:49.832Z,-1.07
2019-02-07T03:39:49.838Z,-1.08
2019-02-07T03:40:50.294Z,-1.09
2019-02-07T03:41:50.532Z,-1.17
2019-02-07T03:42:50.025Z,-1.12
2019-02-07T03:43:49.766Z,-1.05
2019-02-07T03:44:49.993Z,-1.08
2019-02-07T03:46:02.015Z,-1.05
2019-02-07T03:46:49.712Z,-0.97
2019-02-07T03:47:50.194Z,-0.9
2019-02-07T03:48:50.203Z,-0.91
2019-02-07T03:49:50.548Z,-0.86
2019-02-07T03:50:49.913Z,-0.8
2019-02-07T03:51:50.145Z,-0.82
2019-02-07T03:52:50.120Z,-0.78
2019-02-07T03:53:49.861Z,-0.86
2019-02-07T03:54:50.098Z,-0.93
2019-02-07T03:55:50.177Z,-0.9
2019-02-07T03:56:50.082Z,-0.86
2019-02-07T03:57:50.178Z,-0.94
2019-02-07T03:58:50.043Z,-0.97
2019-02-07T03:59:50.024Z,-1.01
2019-02-07T04:00:49.773Z,-0.99
2019-02-07T04:01:49.758Z,-1.02
2019-02-07T04:02:49.975Z,-1.04
2019-02-07T04:03:49.969Z,-1.07
2019-02-07T04:04:50.254Z,-1.04
2019-02-07T04:05:49.674Z,-1.08
2019-02-07T04:06:49.929Z,-1.08
2019-02-07T04:07:49.913Z,-0.93
2019-02-07T04:08:49.642Z,-0.96
2019-02-07T04:09:49.896Z,-0.96
2019-02-07T04:10:49.606Z,-1.05
2019-02-07T04:11:49.925Z,-0.96
2019-02-07T04:12:50.078Z,-0.94
2019-02-07T04:13:49.838Z,-0.96
2019-02-07T04:14:49.557Z,-0.93
2019-02-07T04:15:49.541Z,-0.85
2019-02-07T04:16:49.835Z,-0.85
2019-02-07T04:17:49.529Z,-0.82
2019-02-07T04:18:49.787Z,-0.89
2019-02-07T04:19:49.499Z,-0.83
2019-02-07T04:20:50.360Z,-0.85
2019-02-07T04:21:49.743Z,-0.85
2019-02-07T04:22:49.696Z,-0.77
2019-02-07T04:23:49.688Z,-0.74
2019-02-07T04:24:49.659Z,-0.68
2019-02-07T04:25:49.418Z,-0.59
2019-02-07T04:26:49.645Z,-0.65
2019-02-07T04:27:49.628Z,-0.53
2019-02-07T04:28:49.903Z,-0.52
2019-02-07T04:29:49.348Z,-0.43
2019-02-07T04:30:49.577Z,-0.56
2019-02-07T04:31:49.571Z,-0.5
2019-02-07T04:32:49.321Z,-0.35
2019-02-07T04:33:49.556Z,-0.38
2019-02-07T04:34:49.278Z,-0.34
2019-02-07T04:35:49.535Z,-0.36
2019-02-07T04:36:49.351Z,-0.39
2019-02-07T04:37:49.489Z,-0.35
2019-02-07T04:38:49.222Z,-0.29
2019-02-07T04:39:49.463Z,-0.26
2019-02-07T04:40:49.046Z,-0.32
2019-02-07T04:41:49.177Z,-0.21
2019-02-07T04:42:49.165Z,-0.34
2019-02-07T04:43:49.385Z,-0.26
2019-02-07T04:44:49.406Z,-0.36
2019-02-07T04:45:48.868Z,-0.26
2019-02-07T04:46:49.102Z,-0.32
2019-02-07T04:47:49.339Z,-0.31
2019-02-07T04:48:48.846Z,-0.35
2019-02-07T04:49:49.071Z,-0.32
2019-02-07T04:50:49.291Z,-0.38
2019-02-07T04:51:49.397Z,-0.35
2019-02-07T04:52:49.269Z,-0.32
2019-02-07T04:53:49.255Z,-0.17
2019-02-07T04:54:49.000Z,-0.28
2019-02-07T04:55:49.385Z,-0.26
2019-02-07T04:56:48.958Z,-0.28
2019-02-07T04:57:48.963Z,-0.26
2019-02-07T04:58:49.197Z,-0.28
2019-02-07T04:59:49.588Z,-0.25
2019-02-07T05:00:49.148Z,-0.23
2019-02-07T05:01:48.663Z,-0.29
2019-02-07T05:02:48.893Z,-0.21
2019-02-07T05:03:49.134Z,-0.25
2019-02-07T05:04:49.122Z,-0.21
2019-02-07T05:05:48.837Z,-0.25
2019-02-07T05:06:48.842Z,-0.18
2019-02-07T05:07:49.045Z,-0.18
2019-02-07T05:08:49.047Z,-0.1
2019-02-07T05:09:48.545Z,-0.03
2019-02-07T05:10:49.035Z,-0.08
2019-02-07T05:11:48.765Z,-0.08
2019-02-07T05:12:48.990Z,-0.1
2019-02-07T05:13:48.986Z,-0.07
2019-02-07T05:14:49.031Z,0.03
2019-02-07T05:15:48.688Z,-0.08
2019-02-07T05:16:48.971Z,-0.08
2019-02-07T05:17:48.422Z,-0.07
2019-02-07T05:18:48.654Z,-0.02
2019-02-07T05:19:48.677Z,-0.07
2019-02-07T05:20:48.630Z,0
2019-02-07T05:21:48.635Z,-0.03
2019-02-07T05:22:49.642Z,0
2019-02-07T05:23:48.590Z,0.01
2019-02-07T05:24:48.579Z,0.11
2019-02-07T05:25:48.847Z,0.15
2019-02-07T05:26:48.571Z,0.12
2019-02-07T05:27:48.798Z,0.1
2019-02-07T05:28:48.775Z,0.11
2019-02-07T05:29:48.933Z,0.16
2019-02-07T05:30:48.949Z,0.15
2019-02-07T05:31:48.770Z,0.12
2019-02-07T05:32:48.738Z,0.15
2019-02-07T05:33:48.452Z,0.15
2019-02-07T05:34:48.456Z,0.21
2019-02-07T05:35:48.212Z,0.1
2019-02-07T05:36:48.689Z,0.15
2019-02-07T05:37:52.145Z,0.16
2019-02-07T05:38:48.651Z,0.15
2019-02-07T05:39:48.637Z,0.16
2019-02-07T05:40:48.622Z,0.22
2019-02-07T05:41:48.459Z,0.16
2019-02-07T05:42:48.350Z,0.18
2019-02-07T05:43:50.731Z,0.19
2019-02-07T05:44:48.341Z,0.08
2019-02-07T05:45:49.202Z,0.03
2019-02-07T05:46:56.200Z,0.05
2019-02-07T05:47:48.277Z,-0.03
2019-02-07T05:48:48.266Z,-0.13
2019-02-07T05:49:48.532Z,-0.21
2019-02-07T05:50:48.244Z,-0.25
2019-02-07T05:51:47.961Z,-0.28
2019-02-07T05:52:48.204Z,-0.17
2019-02-07T05:53:48.689Z,-0.1
2019-02-07T05:54:48.451Z,-0.15
2019-02-07T05:55:48.168Z,-0.14
2019-02-07T05:56:48.144Z,-0.14
2019-02-07T05:57:48.389Z,-0.03
2019-02-07T05:58:48.129Z,0
2019-02-07T05:59:48.360Z,-0.06
2019-02-07T06:00:48.073Z,-0.08
2019-02-07T06:01:48.340Z,-0.07
2019-02-07T06:02:48.081Z,-0.1
2019-02-07T06:03:47.809Z,-0.11
2019-02-07T06:04:48.062Z,-0.11
2019-02-07T06:05:48.279Z,-0.11
2019-02-07T06:06:48.270Z,-0.1
2019-02-07T06:07:48.408Z,-0.11
2019-02-07T06:08:48.981Z,-0.17
2019-02-07T06:09:51.413Z,-0.21
2019-02-07T06:10:47.994Z,-0.26
2019-02-07T06:11:47.947Z,-0.26
2019-02-07T06:12:47.951Z,-0.29
2019-02-07T06:13:48.060Z,-0.21
2019-02-07T06:14:48.154Z,-0.26
2019-02-07T06:15:48.023Z,-0.17
2019-02-07T06:16:48.209Z,-0.23
2019-02-07T06:17:47.875Z,-0.28
2019-02-07T06:18:47.862Z,-0.14
2019-02-07T06:19:47.612Z,-0.28
2019-02-07T06:20:48.073Z,-0.15
2019-02-07T06:21:50.434Z,-0.14
2019-02-07T06:22:47.567Z,-0.14
2019-02-07T06:23:47.664Z,-0.08
2019-02-07T06:24:47.791Z,-0.1
2019-02-07T06:25:48.029Z,-0.03
2019-02-07T06:26:47.495Z,0.04
2019-02-07T06:27:47.980Z,0.01
2019-02-07T06:28:47.728Z,-0.06
2019-02-07T06:29:47.956Z,-0.07
2019-02-07T06:30:47.436Z,0.04
2019-02-07T06:31:47.998Z,-0.03
2019-02-07T06:32:47.423Z,0.15
2019-02-07T06:33:47.668Z,0.15
2019-02-07T06:34:47.889Z,0.21
2019-02-07T06:35:47.890Z,0.19
2019-02-07T06:36:47.621Z,0.16
2019-02-07T06:37:47.875Z,0.25
2019-02-07T06:38:47.843Z,0.31
2019-02-07T06:39:48.410Z,0.36
2019-02-07T06:40:47.845Z,0.34
2019-02-07T06:41:47.550Z,0.26
2019-02-07T06:42:47.534Z,0.28
2019-02-07T06:43:47.271Z,0.29
2019-02-07T06:44:47.785Z,0.34
2019-02-07T06:45:47.504Z,0.26
2019-02-07T06:46:47.508Z,0.21
2019-02-07T06:47:47.810Z,0.21
2019-02-07T06:48:47.225Z,0.25
2019-02-07T06:49:47.444Z,0.21
2019-02-07T06:50:47.672Z,0.23
2019-02-07T06:51:47.419Z,0.12
2019-02-07T06:52:47.694Z,0.21
2019-02-07T06:53:47.386Z,0.23
2019-02-07T06:54:47.294Z,0.34
2019-02-07T06:55:47.644Z,0.36
2019-02-07T06:56:47.337Z,0.26
2019-02-07T06:57:47.095Z,0.31
2019-02-07T06:58:47.567Z,0.25
2019-02-07T06:59:47.576Z,0.26
2019-02-07T07:00:47.309Z,0.32
2019-02-07T07:01:47.529Z,0.29
2019-02-07T07:02:47.711Z,0.28
2019-02-07T07:03:47.274Z,0.28
2019-02-07T07:04:47.306Z,0.23
2019-02-07T07:05:47.238Z,0.22
2019-02-07T07:06:47.214Z,0.29
2019-02-07T07:07:47.458Z,0.32
2019-02-07T07:08:47.199Z,0.32
2019-02-07T07:09:47.186Z,0.39
2019-02-07T07:10:47.393Z,0.47
2019-02-07T07:11:47.177Z,0.43
2019-02-07T07:12:47.003Z,0.55
2019-02-07T07:13:47.145Z,0.6
2019-02-07T07:14:47.121Z,0.65
2019-02-07T07:15:47.361Z,0.63
2019-02-07T07:16:46.857Z,0.63
2019-02-07T07:17:47.119Z,0.62
2019-02-07T07:18:47.547Z,0.68
2019-02-07T07:19:47.054Z,0.56
2019-02-07T07:20:47.291Z,0.63
2019-02-07T07:21:47.303Z,0.68
2019-02-07T07:22:47.268Z,0.49
2019-02-07T07:23:47.251Z,0.58
2019-02-07T07:24:46.974Z,0.6
2019-02-07T07:25:47.226Z,0.73
2019-02-07T07:26:47.373Z,0.66
2019-02-07T07:27:46.959Z,0.66
2019-02-07T07:28:47.219Z,0.77
2019-02-07T07:29:46.952Z,0.78
2019-02-07T07:30:46.932Z,0.76
2019-02-07T07:31:47.178Z,0.76
2019-02-07T07:32:46.939Z,0.87
2019-02-07T07:33:47.119Z,0.86
2019-02-07T07:34:47.588Z,0.87
2019-02-07T07:35:47.111Z,0.95
2019-02-07T07:36:47.103Z,0.99
2019-02-07T07:37:47.076Z,1.01
2019-02-07T07:38:47.065Z,1.04
2019-02-07T07:39:46.555Z,1.01
2019-02-07T07:40:47.034Z,1.06
2019-02-07T07:41:47.046Z,1.04
2019-02-07T07:42:47.440Z,1.08
2019-02-07T07:43:46.754Z,1.17
2019-02-07T07:44:47.020Z,1.24
2019-02-07T07:45:46.728Z,1.22
2019-02-07T07:46:46.982Z,1.4
2019-02-07T07:47:46.758Z,1.32
2019-02-07T07:48:46.719Z,1.41
2019-02-07T07:49:46.675Z,1.34
2019-02-07T07:50:46.992Z,1.35
2019-02-07T07:51:46.911Z,1.42
2019-02-07T07:52:46.899Z,1.34
2019-02-07T07:53:46.884Z,1.45
2019-02-07T07:54:46.622Z,1.38
2019-02-07T07:55:46.868Z,1.35
2019-02-07T07:56:46.624Z,1.42
2019-02-07T07:57:46.727Z,1.4
2019-02-07T07:58:46.322Z,1.45
2019-02-07T07:59:46.555Z,1.35
2019-02-07T08:00:46.541Z,1.48
2019-02-07T08:01:46.778Z,1.44
2019-02-07T08:02:46.543Z,1.45
2019-02-07T08:03:46.786Z,1.5
2019-02-07T08:04:46.506Z,1.59
2019-02-07T08:05:47.250Z,1.6
2019-02-07T08:06:46.482Z,1.59
2019-02-07T08:07:46.745Z,1.67
2019-02-07T08:08:46.197Z,1.7
2019-02-07T08:09:46.717Z,1.68
2019-02-07T08:10:46.184Z,1.7
2019-02-07T08:11:46.405Z,1.76
2019-02-07T08:12:46.638Z,1.76
2019-02-07T08:13:47.182Z,1.77
2019-02-07T08:14:46.371Z,1.77
2019-02-07T08:15:46.599Z,1.7
2019-02-07T08:16:46.598Z,1.77
2019-02-07T08:17:52.428Z,1.81
2019-02-07T08:18:46.562Z,1.84
2019-02-07T08:19:46.556Z,1.81
2019-02-07T08:20:46.294Z,1.92
2019-02-07T08:21:46.739Z,1.89
2019-02-07T08:22:46.516Z,1.92
2019-02-07T08:23:46.496Z,1.99
2019-02-07T08:24:46.233Z,1.95
2019-02-07T08:25:46.487Z,1.94
2019-02-07T08:26:45.968Z,1.89
2019-02-07T08:27:46.470Z,1.97
2019-02-07T08:28:46.352Z,1.95
2019-02-07T08:29:46.509Z,2.06
2019-02-07T08:30:46.191Z,2.07
2019-02-07T08:31:46.432Z,2.1
2019-02-07T08:32:46.407Z,2.13
2019-02-07T08:33:46.387Z,2.17
2019-02-07T08:34:46.152Z,2.22
2019-02-07T08:35:46.388Z,2.2
2019-02-07T08:36:46.227Z,2.22
2019-02-07T08:37:46.345Z,2.24
2019-02-07T08:38:46.113Z,2.17
2019-02-07T08:39:46.075Z,2.13
2019-02-07T08:40:46.316Z,2.29
2019-02-07T08:41:46.315Z,2.22
2019-02-07T08:42:46.310Z,2.22
2019-02-07T08:43:46.280Z,2.26
2019-02-07T08:44:46.806Z,2.32
2019-02-07T08:45:45.811Z,2.29
2019-02-07T08:46:46.345Z,2.33
2019-02-07T08:47:46.264Z,2.35
2019-02-07T08:48:45.724Z,2.42
2019-02-07T08:49:46.381Z,2.39
2019-02-07T08:50:46.114Z,2.42
2019-02-07T08:51:46.238Z,2.39
2019-02-07T08:52:46.736Z,2.38
2019-02-07T08:53:45.951Z,2.42
2019-02-07T08:54:46.169Z,2.43
2019-02-07T08:55:45.910Z,2.39
2019-02-07T08:56:45.880Z,2.39
2019-02-07T08:57:46.171Z,2.42
2019-02-07T08:58:45.892Z,2.44
2019-02-07T08:59:45.853Z,2.35
2019-02-07T09:00:46.534Z,2.43
2019-02-07T09:01:46.080Z,2.42
2019-02-07T09:02:56.032Z,2.39
2019-02-07T09:03:46.050Z,2.49
2019-02-07T09:04:46.037Z,2.51
2019-02-07T09:05:45.555Z,2.5
2019-02-07T09:06:46.006Z,2.49
2019-02-07T09:07:46.299Z,2.53
2019-02-07T09:08:46.024Z,2.5
2019-02-07T09:09:45.979Z,2.54
2019-02-07T09:10:45.723Z,2.56
2019-02-07T09:11:45.950Z,2.61
2019-02-07T09:12:45.939Z,2.6
2019-02-07T09:13:45.694Z,2.61
2019-02-07T09:14:45.927Z,2.57
2019-02-07T09:15:45.878Z,2.64
2019-02-07T09:16:45.905Z,2.71
2019-02-07T09:17:45.661Z,2.74
2019-02-07T09:18:45.985Z,2.82
2019-02-07T09:19:45.878Z,2.87
2019-02-07T09:20:45.630Z,2.9
2019-02-07T09:21:45.608Z,2.86
2019-02-07T09:22:45.375Z,2.97
2019-02-07T09:23:46.114Z,2.98
2019-02-07T09:24:45.835Z,3.08
2019-02-07T09:25:45.313Z,3.16
2019-02-07T09:26:45.560Z,3.08
2019-02-07T09:27:45.782Z,3.23
2019-02-07T09:28:45.805Z,3.26
2019-02-07T09:29:45.508Z,3.22
2019-02-07T09:30:45.758Z,3.21
2019-02-07T09:31:46.228Z,3.22
2019-02-07T09:32:45.840Z,3.22
2019-02-07T09:33:45.720Z,3.26
2019-02-07T09:34:45.721Z,3.23
2019-02-07T09:35:45.723Z,3.26
2019-02-07T09:36:45.717Z,3.28
2019-02-07T09:37:45.190Z,3.25
2019-02-07T09:38:45.716Z,3.26
2019-02-07T09:39:45.568Z,3.31
2019-02-07T09:40:45.163Z,3.28
2019-02-07T09:41:45.413Z,3.4
2019-02-07T09:42:45.639Z,3.31
2019-02-07T09:43:45.122Z,3.31
2019-02-07T09:44:45.388Z,3.29
2019-02-07T09:45:45.653Z,3.28
2019-02-07T09:46:45.666Z,3.26
2019-02-07T09:47:45.194Z,3.42
2019-02-07T09:48:45.603Z,3.44
2019-02-07T09:49:45.295Z,3.47
2019-02-07T09:50:45.538Z,3.42
2019-02-07T09:51:45.547Z,3.58
2019-02-07T09:52:45.531Z,3.55
2019-02-07T09:53:45.041Z,3.58
2019-02-07T09:54:46.028Z,3.5
2019-02-07T09:55:45.260Z,3.56
2019-02-07T09:56:45.229Z,3.59
2019-02-07T09:57:44.962Z,3.69
2019-02-07T09:58:45.480Z,3.59
2019-02-07T09:59:45.454Z,3.62
2019-02-07T10:00:45.190Z,3.66
2019-02-07T10:01:45.169Z,3.56
2019-02-07T10:02:46.250Z,3.56
2019-02-07T10:03:45.524Z,3.68
2019-02-07T10:04:45.140Z,3.66
2019-02-07T10:05:44.872Z,3.74
2019-02-07T10:06:45.117Z,3.74
2019-02-07T10:07:45.104Z,3.86
2019-02-07T10:08:45.346Z,3.76
2019-02-07T10:09:45.224Z,3.86
2019-02-07T10:10:45.162Z,3.73
2019-02-07T10:11:45.085Z,3.77
2019-02-07T10:12:45.875Z,3.83
2019-02-07T10:13:45.050Z,3.81
2019-02-07T10:14:45.284Z,3.77
2019-02-07T10:15:45.316Z,3.81
2019-02-07T10:16:45.047Z,3.84
2019-02-07T10:17:45.550Z,3.8
2019-02-07T10:18:44.773Z,3.78
2019-02-07T10:19:45.248Z,3.76
2019-02-07T10:20:44.982Z,3.84
2019-02-07T10:21:44.959Z,3.84
2019-02-07T10:22:45.203Z,3.86
2019-02-07T10:23:44.994Z,3.8
2019-02-07T10:24:44.938Z,3.86
2019-02-07T10:25:45.673Z,3.84
2019-02-07T10:26:44.924Z,3.81
2019-02-07T10:27:44.652Z,3.7
2019-02-07T10:28:45.130Z,3.73
2019-02-07T10:29:45.144Z,3.62
2019-02-07T10:30:45.120Z,3.69
2019-02-07T10:31:44.894Z,3.56
2019-02-07T10:32:44.864Z,3.63
2019-02-07T10:33:45.234Z,3.59
2019-02-07T10:34:44.835Z,3.58
2019-02-07T10:35:45.092Z,3.58
2019-02-07T10:36:44.811Z,3.48
2019-02-07T10:37:44.550Z,3.44
2019-02-07T10:38:45.037Z,3.59
2019-02-07T10:39:45.030Z,3.59
2019-02-07T10:40:44.747Z,3.45
2019-02-07T10:41:44.778Z,3.55
2019-02-07T10:42:44.506Z,3.5
2019-02-07T10:43:44.744Z,3.5
2019-02-07T10:44:44.987Z,3.41
2019-02-07T10:45:44.737Z,3.37
2019-02-07T10:46:44.937Z,3.4
2019-02-07T10:47:44.943Z,3.4
2019-02-07T10:48:49.487Z,3.41
2019-02-07T10:49:44.933Z,3.28
2019-02-07T10:50:44.690Z,3.26
2019-02-07T10:51:44.902Z,3.28
2019-02-07T10:52:44.871Z,3.28
2019-02-07T10:53:44.617Z,3.34
2019-02-07T10:54:44.623Z,3.4
2019-02-07T10:55:44.604Z,3.34
2019-02-07T10:56:45.494Z,3.42
2019-02-07T10:57:44.358Z,3.41
2019-02-07T10:58:44.569Z,3.47
2019-02-07T10:59:44.549Z,3.47
2019-02-07T11:00:44.577Z,3.44
2019-02-07T11:01:44.779Z,3.41
2019-02-07T11:02:44.529Z,3.44
2019-02-07T11:03:44.498Z,3.48
2019-02-07T11:04:44.399Z,3.34
2019-02-07T11:05:44.759Z,3.37
2019-02-07T11:06:44.540Z,3.48
2019-02-07T11:07:44.496Z,3.5
2019-02-07T11:08:44.294Z,3.48
2019-02-07T11:09:44.462Z,3.62
2019-02-07T11:10:44.688Z,3.62
2019-02-07T11:11:44.719Z,3.53
2019-02-07T11:12:44.811Z,3.58
2019-02-07T11:13:44.674Z,3.6
2019-02-07T11:14:44.395Z,3.62
2019-02-07T11:15:44.664Z,3.66
2019-02-07T11:16:44.620Z,3.7
2019-02-07T11:17:44.628Z,3.69
2019-02-07T11:18:55.045Z,3.74
2019-02-07T11:19:44.610Z,3.65
2019-02-07T11:20:44.612Z,3.68
2019-02-07T11:21:44.324Z,3.63
2019-02-07T11:22:44.590Z,3.77
2019-02-07T11:23:44.387Z,3.78
2019-02-07T11:24:44.293Z,3.77
2019-02-07T11:25:44.411Z,3.78
2019-02-07T11:26:44.291Z,3.78
2019-02-07T11:27:47.289Z,3.86
2019-02-07T11:28:44.492Z,3.87
2019-02-07T11:29:44.208Z,3.91
2019-02-07T11:30:44.208Z,3.83
2019-02-07T11:31:44.278Z,3.88
2019-02-07T11:32:44.442Z,3.83
2019-02-07T11:33:44.464Z,3.88
2019-02-07T11:34:46.017Z,3.83
2019-02-07T11:35:44.674Z,3.86
2019-02-07T11:36:53.743Z,3.99
2019-02-07T11:37:44.160Z,3.96
2019-02-07T11:38:44.130Z,3.98
2019-02-07T11:39:44.386Z,3.94
2019-02-07T11:40:46.142Z,3.95
2019-02-07T11:41:44.103Z,3.96
2019-02-07T11:42:44.364Z,3.96
2019-02-07T11:43:44.852Z,3.98
2019-02-07T11:44:44.070Z,3.96
2019-02-07T11:45:44.354Z,4.01
2019-02-07T11:46:43.819Z,3.87
2019-02-07T11:47:44.290Z,3.91
2019-02-07T11:48:44.285Z,3.87
2019-02-07T11:49:44.282Z,3.81
2019-02-07T11:50:43.999Z,3.88
2019-02-07T11:51:44.424Z,3.88
2019-02-07T11:52:44.239Z,3.81
2019-02-07T11:53:43.973Z,3.86
2019-02-07T11:54:44.206Z,3.84
2019-02-07T11:55:44.193Z,3.78
2019-02-07T11:56:43.998Z,3.8
2019-02-07T11:57:43.949Z,3.83
2019-02-07T11:58:44.169Z,3.78
2019-02-07T11:59:44.597Z,3.86
2019-02-07T12:00:44.220Z,3.73
2019-02-07T12:01:43.666Z,3.76
2019-02-07T12:02:43.752Z,3.73
2019-02-07T12:03:44.126Z,3.7
2019-02-07T12:04:43.628Z,3.7
2019-02-07T12:05:43.640Z,3.76
2019-02-07T12:06:43.984Z,3.84
2019-02-07T12:07:43.840Z,3.78
2019-02-07T12:08:43.570Z,3.83
2019-02-07T12:09:44.059Z,3.8
2019-02-07T12:10:43.550Z,3.81
2019-02-07T12:11:43.781Z,3.8
2019-02-07T12:12:43.769Z,3.81
2019-02-07T12:13:43.530Z,3.83
2019-02-07T12:14:44.250Z,3.96
2019-02-07T12:15:43.637Z,3.84
2019-02-07T12:16:43.976Z,3.91
2019-02-07T12:17:44.373Z,4.04
2019-02-07T12:18:43.702Z,4.04
2019-02-07T12:19:43.735Z,4.06
2019-02-07T12:20:43.434Z,4.06
2019-02-07T12:21:43.683Z,4.02
2019-02-07T12:22:44.721Z,4.05
2019-02-07T12:23:43.651Z,4.12
2019-02-07T12:24:43.642Z,4.2
2019-02-07T12:25:43.894Z,4.22
2019-02-07T12:26:43.620Z,4.16
2019-02-07T12:27:43.782Z,4.24
2019-02-07T12:28:43.608Z,4.34
2019-02-07T12:29:43.342Z,4.37
2019-02-07T12:30:44.117Z,4.48
2019-02-07T12:31:43.326Z,4.52
2019-02-07T12:32:43.842Z,4.55
2019-02-07T12:33:43.549Z,4.48
2019-02-07T12:34:43.802Z,4.52
2019-02-07T12:35:43.524Z,4.7
2019-02-07T12:36:43.530Z,4.63
2019-02-07T12:37:43.938Z,4.62
2019-02-07T12:38:43.497Z,4.62
2019-02-07T12:39:43.547Z,4.71
2019-02-07T12:40:43.726Z,4.8
2019-02-07T12:41:43.712Z,4.75
2019-02-07T12:42:43.609Z,4.75
2019-02-07T12:43:43.209Z,4.87
2019-02-07T12:44:44.234Z,4.87
2019-02-07T12:45:43.618Z,4.82
2019-02-07T12:46:43.657Z,4.87
2019-02-07T12:47:43.671Z,4.99
2019-02-07T12:48:43.648Z,4.94
2019-02-07T12:49:43.425Z,5
2019-02-07T12:50:43.629Z,5.05
2019-02-07T12:51:43.680Z,4.99
2019-02-07T12:52:43.373Z,5.05
2019-02-07T12:53:43.818Z,4.99
2019-02-07T12:54:43.653Z,4.96
2019-02-07T12:55:54.271Z,5.02
2019-02-07T12:56:43.082Z,5.02
2019-02-07T12:57:43.330Z,5.05
2019-02-07T12:58:43.340Z,5.04
2019-02-07T12:59:43.318Z,5
2019-02-07T13:00:43.293Z,5.04
2019-02-07T13:01:44.107Z,5.05
2019-02-07T13:02:43.026Z,5
2019-02-07T13:03:43.515Z,4.97
2019-02-07T13:04:43.257Z,4.96
2019-02-07T13:05:43.262Z,5.02
2019-02-07T13:06:43.490Z,4.99
2019-02-07T13:07:43.556Z,5.07
2019-02-07T13:08:43.465Z,5.05
2019-02-07T13:09:44.207Z,5.17
2019-02-07T13:10:43.235Z,5.15
2019-02-07T13:11:43.449Z,5.2